createdAt,value
2022-12-13T19:44:47.655Z,160.05
2022-12-13T19:47:16.513Z,165.63
2022-12-13T19:49:45.185Z,127.38
2022-12-13T19:52:13.951Z,78.63
2022-12-13T19:54:42.513Z,65.00
2022-12-13T19:57:11.284Z,55.45
2022-12-13T19:59:39.929Z,43.55
2022-12-13T20:02:11.178Z,32.92
2022-12-13T20:04:39.759Z,29.70
2022-12-13T20:07:08.406Z,25.95
2022-12-13T20:09:39.045Z,24.83
2022-12-13T20:12:07.962Z,22.85
2022-12-13T20:14:36.547Z,22.13
2022-12-13T20:17:05.187Z,18.70
2022-12-13T20:19:35.186Z,17.13
2022-12-13T20:22:04.073Z,17.40
2022-12-13T20:24:32.828Z,18.02
2022-12-13T20:27:01.943Z,17.48
2022-12-13T20:29:30.621Z,16.33
2022-12-13T20:31:59.249Z,15.95
2022-12-13T20:34:27.915Z,16.33
2022-12-13T20:36:57.828Z,16.63
2022-12-13T20:39:26.497Z,16.27
2022-12-13T20:41:55.066Z,15.70
2022-12-13T20:44:23.883Z,15.02
2022-12-13T20:46:52.655Z,17.55
2022-12-13T20:49:22.202Z,19.17
2022-12-13T20:51:50.867Z,17.23
2022-12-13T20:54:20.783Z,20.23
2022-12-13T20:56:49.290Z,18.65
2022-12-13T20:59:18.195Z,20.17
2022-12-13T21:01:49.001Z,19.95
2022-12-13T21:04:18.018Z,18.58
2022-12-13T21:06:46.634Z,19.25
2022-12-13T21:09:15.185Z,21.98
2022-12-13T21:11:46.806Z,17.48
2022-12-13T21:14:21.358Z,19.15
2022-12-13T21:16:51.697Z,19.27
2022-12-13T21:19:23.292Z,19.27
2022-12-13T21:21:52.078Z,21.42
2022-12-13T21:24:21.586Z,20.13
2022-12-13T21:26:52.025Z,19.77
2022-12-13T21:29:21.000Z,20.50
2022-12-13T21:31:50.884Z,20.65
2022-12-13T21:34:19.892Z,20.88
2022-12-13T21:36:49.303Z,21.88
2022-12-13T21:39:18.868Z,22.23
2022-12-13T21:41:47.420Z,21.50
2022-12-13T21:44:18.614Z,17.70
2022-12-13T21:49:36.017Z,22.05
2022-12-13T21:52:04.593Z,20.63
2022-12-13T21:54:33.160Z,19.65
2022-12-13T21:57:19.791Z,19.15
2022-12-13T21:59:49.805Z,16.42
2022-12-13T22:02:19.383Z,17.50
2022-12-13T22:04:49.060Z,17.58
2022-12-13T22:07:18.941Z,18.35
2022-12-13T22:09:47.953Z,17.92
2022-12-13T22:12:21.360Z,17.33
2022-12-13T22:14:51.619Z,17.45
2022-12-13T22:17:24.895Z,15.95
2022-12-13T22:19:56.093Z,16.08
2022-12-13T22:22:25.229Z,15.38
2022-12-13T22:24:54.239Z,14.85
2022-12-13T22:27:25.632Z,13.45
2022-12-13T22:29:57.208Z,14.55
2022-12-13T22:32:27.433Z,13.93
2022-12-13T22:34:56.281Z,15.95
2022-12-13T22:37:25.389Z,14.30
2022-12-13T22:39:54.109Z,13.20
2022-12-13T22:42:22.859Z,14.20
2022-12-13T22:44:51.425Z,15.57
2022-12-13T22:47:22.249Z,14.05
2022-12-13T22:49:50.900Z,14.15
2022-12-13T22:52:19.536Z,15.75
2022-12-13T22:54:48.043Z,14.75
2022-12-13T22:57:16.689Z,14.52
2022-12-13T22:59:45.491Z,12.73
2022-12-13T23:02:14.179Z,13.40
2022-12-13T23:04:44.256Z,12.88
2022-12-13T23:07:12.816Z,13.63
2022-12-13T23:09:41.300Z,12.25
2022-12-13T23:12:27.774Z,12.35
2022-12-13T23:14:56.348Z,13.23
2022-12-13T23:17:24.856Z,14.43
2022-12-13T23:19:54.948Z,13.02
2022-12-13T23:22:24.054Z,16.40
2022-12-13T23:24:52.836Z,14.27
2022-12-13T23:27:22.077Z,13.88
2022-12-13T23:29:50.575Z,14.02
2022-12-13T23:32:20.470Z,14.98
2022-12-13T23:34:49.319Z,15.45
2022-12-13T23:37:19.230Z,14.05
2022-12-13T23:39:47.929Z,15.38
2022-12-13T23:42:17.881Z,13.18
2022-12-13T23:44:46.359Z,13.82
2022-12-13T23:47:14.982Z,12.65
2022-12-13T23:49:43.455Z,17.75
2022-12-13T23:52:12.109Z,15.00
2022-12-13T23:54:42.093Z,14.48
2022-12-13T23:57:10.644Z,15.15
2022-12-13T23:59:39.357Z,12.60
